createdAt,value
2018-04-01T00:00:53.496Z,0.00
2018-04-01T00:01:53.585Z,0.00
2018-04-01T00:02:53.682Z,0.00
2018-04-01T00:03:53.770Z,0.00
2018-04-01T00:04:53.862Z,0.00
2018-04-01T00:05:53.954Z,0.00
2018-04-01T00:06:54.042Z,0.00
2018-04-01T00:07:54.134Z,0.00
2018-04-01T00:08:54.226Z,0.00
2018-04-01T00:09:54.315Z,0.00
2018-04-01T00:10:54.403Z,0.00
2018-04-01T00:11:54.497Z,0.00
2018-04-01T00:12:54.585Z,0.00
2018-04-01T00:13:54.675Z,0.00
2018-04-01T00:14:54.763Z,0.00
2018-04-01T00:15:54.848Z,0.00
2018-04-01T00:16:54.948Z,0.00
2018-04-01T00:17:55.039Z,0.00
2018-04-01T00:18:55.128Z,0.00
2018-04-01T00:19:55.220Z,0.00
2018-04-01T00:20:55.309Z,0.00
2018-04-01T00:21:55.450Z,0.00
2018-04-01T00:22:55.506Z,0.00
2018-04-01T00:23:55.598Z,0.00
2018-04-01T00:24:55.690Z,0.00
2018-04-01T00:25:55.780Z,0.00
2018-04-01T00:26:55.871Z,0.00
2018-04-01T00:27:55.961Z,0.00
2018-04-01T00:28:56.047Z,0.00
2018-04-01T00:29:56.137Z,0.00
2018-04-01T00:30:56.223Z,0.00
2018-04-01T00:31:56.310Z,0.00
2018-04-01T00:32:56.400Z,0.00
2018-04-01T00:33:56.489Z,0.00
2018-04-01T00:34:56.572Z,0.00
2018-04-01T00:35:56.668Z,0.00
2018-04-01T00:36:56.768Z,0.00
2018-04-01T00:37:56.860Z,0.00
2018-04-01T00:38:56.956Z,0.00
2018-04-01T00:39:57.038Z,0.00
2018-04-01T00:40:57.149Z,0.00
2018-04-01T00:41:57.236Z,0.00
2018-04-01T00:42:57.328Z,0.00
2018-04-01T00:43:57.415Z,0.00
2018-04-01T00:44:57.503Z,0.00
2018-04-01T00:45:57.591Z,0.00
2018-04-01T00:46:57.684Z,0.00
2018-04-01T00:47:57.775Z,0.00
2018-04-01T00:48:57.865Z,0.00
2018-04-01T00:49:57.954Z,0.00
2018-04-01T00:50:58.040Z,0.00
2018-04-01T00:51:58.129Z,0.00
2018-04-01T00:52:58.216Z,0.00
2018-04-01T00:53:58.301Z,0.00
2018-04-01T00:54:58.396Z,0.00
2018-04-01T00:55:58.484Z,0.00
2018-04-01T00:56:58.574Z,0.00
2018-04-01T00:57:58.665Z,0.00
2018-04-01T00:58:58.751Z,0.00
2018-04-01T00:59:58.844Z,0.00
2018-04-01T01:00:58.935Z,0.00
2018-04-01T01:01:59.026Z,0.00
2018-04-01T01:02:59.116Z,0.00
2018-04-01T01:03:59.204Z,0.00
2018-04-01T01:04:59.296Z,0.00
2018-04-01T01:05:59.384Z,0.00
2018-04-01T01:06:59.476Z,0.00
2018-04-01T01:07:59.568Z,0.00
2018-04-01T01:08:59.660Z,0.00
2018-04-01T01:09:59.747Z,0.00
2018-04-01T01:10:59.841Z,0.00
2018-04-01T01:11:59.932Z,0.00
2018-04-01T01:13:00.020Z,0.00
2018-04-01T01:14:00.107Z,0.00
2018-04-01T01:15:00.194Z,0.00
2018-04-01T01:16:00.286Z,0.00
2018-04-01T01:17:00.375Z,0.00
2018-04-01T01:18:00.512Z,0.00
2018-04-01T01:19:00.556Z,0.00
2018-04-01T01:20:00.643Z,0.00
2018-04-01T01:21:00.731Z,0.00
2018-04-01T01:22:00.825Z,0.00
2018-04-01T01:23:00.915Z,0.00
2018-04-01T01:24:01.002Z,0.00
2018-04-01T01:25:01.116Z,0.00
2018-04-01T01:26:01.204Z,0.00
2018-04-01T01:27:01.292Z,0.00
2018-04-01T01:28:01.385Z,0.00
2018-04-01T01:29:01.471Z,0.00
2018-04-01T01:30:01.564Z,0.00
2018-04-01T01:31:01.655Z,0.00
2018-04-01T01:32:01.739Z,0.00
2018-04-01T01:33:01.836Z,0.00
2018-04-01T01:34:01.923Z,0.00
2018-04-01T01:35:02.024Z,0.00
2018-04-01T01:36:02.116Z,0.00
2018-04-01T01:37:02.206Z,0.00
2018-04-01T01:38:02.295Z,0.00
2018-04-01T01:39:02.385Z,0.00
2018-04-01T01:40:02.479Z,0.00
2018-04-01T01:41:02.566Z,0.00
2018-04-01T01:42:02.657Z,0.00
2018-04-01T01:43:02.749Z,0.00
2018-04-01T01:44:02.842Z,0.00
2018-04-01T01:45:02.931Z,0.00
2018-04-01T01:46:03.022Z,0.00
2018-04-01T01:47:03.113Z,0.00
2018-04-01T01:48:03.199Z,0.00
2018-04-01T01:49:03.303Z,0.00
2018-04-01T01:50:03.375Z,0.00
2018-04-01T01:51:03.465Z,0.00
2018-04-01T01:52:03.557Z,0.00
2018-04-01T01:53:03.646Z,0.00
2018-04-01T01:54:03.737Z,0.00
2018-04-01T01:55:03.829Z,0.00
2018-04-01T01:56:03.921Z,0.00
2018-04-01T01:57:04.014Z,0.00
2018-04-01T01:58:04.100Z,0.00
2018-04-01T01:59:04.190Z,0.00
2018-04-01T02:00:04.279Z,0.00
2018-04-01T02:01:04.370Z,0.00
2018-04-01T02:02:04.461Z,0.00
2018-04-01T02:03:04.564Z,0.00
2018-04-01T02:04:04.654Z,0.00
2018-04-01T02:05:04.744Z,0.00
2018-04-01T02:06:04.839Z,0.00
2018-04-01T02:07:04.929Z,0.00
2018-04-01T02:08:05.030Z,0.00
2018-04-01T02:09:05.116Z,0.00
2018-04-01T02:10:05.213Z,0.00
2018-04-01T02:11:05.293Z,0.00
2018-04-01T02:12:05.386Z,0.00
2018-04-01T02:13:05.481Z,0.00
2018-04-01T02:14:05.572Z,0.00
2018-04-01T02:15:05.658Z,0.00
2018-04-01T02:16:05.751Z,0.00
2018-04-01T02:17:05.845Z,0.00
2018-04-01T02:18:05.933Z,0.00
2018-04-01T02:19:06.045Z,0.00
2018-04-01T02:20:06.111Z,0.00
2018-04-01T02:21:06.200Z,0.00
2018-04-01T02:22:06.296Z,0.00
2018-04-01T02:23:06.381Z,0.00
2018-04-01T02:24:06.474Z,0.00
2018-04-01T02:25:06.567Z,0.00
2018-04-01T02:26:06.660Z,0.00
2018-04-01T02:27:06.749Z,0.00
2018-04-01T02:28:06.845Z,0.00
2018-04-01T02:29:06.932Z,0.00
2018-04-01T02:30:07.022Z,0.00
2018-04-01T02:31:07.121Z,0.00
2018-04-01T02:32:07.205Z,0.00
2018-04-01T02:33:07.299Z,0.00
2018-04-01T02:34:07.387Z,0.00
2018-04-01T02:35:07.475Z,0.00
2018-04-01T02:36:07.566Z,0.00
2018-04-01T02:37:07.656Z,0.00
2018-04-01T02:38:07.748Z,0.00
2018-04-01T02:39:07.838Z,0.00
2018-04-01T02:40:07.928Z,0.00
2018-04-01T02:41:08.025Z,0.00
2018-04-01T02:42:08.115Z,0.00
2018-04-01T02:43:08.205Z,0.00
2018-04-01T02:44:08.295Z,0.00
2018-04-01T02:45:08.392Z,0.00
2018-04-01T02:46:08.480Z,0.00
2018-04-01T02:47:08.571Z,0.00
2018-04-01T02:48:08.662Z,0.00
2018-04-01T02:49:08.749Z,0.00
2018-04-01T02:50:08.836Z,0.00
2018-04-01T02:51:08.930Z,0.00
2018-04-01T02:52:09.015Z,0.00
2018-04-01T02:53:09.106Z,0.00
2018-04-01T02:54:09.201Z,0.00
2018-04-01T02:55:09.289Z,0.00
2018-04-01T02:56:09.379Z,0.00
2018-04-01T02:57:09.474Z,0.00
2018-04-01T02:58:09.566Z,0.00
2018-04-01T02:59:09.658Z,0.00
2018-04-01T03:00:09.753Z,0.00
2018-04-01T03:01:09.847Z,0.00
2018-04-01T03:02:09.932Z,0.00
2018-04-01T03:03:10.025Z,0.00
2018-04-01T03:04:10.115Z,0.00
2018-04-01T03:05:10.206Z,0.00
2018-04-01T03:06:10.293Z,0.00
2018-04-01T03:07:10.383Z,0.00
2018-04-01T03:08:10.468Z,0.00
2018-04-01T03:09:10.561Z,0.00
2018-04-01T03:10:10.651Z,0.00
2018-04-01T03:11:10.806Z,0.00
2018-04-01T03:12:10.833Z,0.00
2018-04-01T03:13:10.910Z,0.00
2018-04-01T03:14:11.022Z,0.00
2018-04-01T03:15:11.107Z,0.00
2018-04-01T03:16:11.201Z,0.00
2018-04-01T03:17:11.289Z,0.00
2018-04-01T03:18:11.384Z,0.00
2018-04-01T03:19:11.480Z,0.00
2018-04-01T03:20:11.569Z,0.00
2018-04-01T03:21:11.656Z,0.00
2018-04-01T03:22:11.749Z,0.00
2018-04-01T03:23:11.840Z,0.00
2018-04-01T03:24:11.927Z,0.00
2018-04-01T03:25:12.019Z,0.00
2018-04-01T03:26:12.104Z,0.00
2018-04-01T03:27:12.191Z,0.00
2018-04-01T03:28:12.284Z,0.00
2018-04-01T03:29:12.371Z,0.00
2018-04-01T03:30:12.467Z,0.00
2018-04-01T03:31:12.556Z,0.00
2018-04-01T03:32:12.648Z,0.00
2018-04-01T03:33:12.737Z,0.00
2018-04-01T03:34:12.828Z,0.00
2018-04-01T03:35:12.929Z,0.00
2018-04-01T03:36:13.015Z,0.00
2018-04-01T03:37:13.114Z,0.00
2018-04-01T03:38:13.205Z,0.00
2018-04-01T03:39:13.297Z,0.00
2018-04-01T03:40:13.389Z,0.00
2018-04-01T03:41:13.480Z,0.00
2018-04-01T03:42:13.573Z,0.00
2018-04-01T03:43:13.665Z,0.00
2018-04-01T03:44:13.753Z,0.00
2018-04-01T03:45:13.843Z,0.00
2018-04-01T03:46:13.932Z,0.00
2018-04-01T03:47:14.026Z,0.00
2018-04-01T03:48:14.119Z,0.00
2018-04-01T03:49:14.208Z,0.00
2018-04-01T03:50:14.297Z,0.00
2018-04-01T03:51:14.385Z,0.00
2018-04-01T03:52:14.472Z,0.00
2018-04-01T03:53:14.565Z,0.00
2018-04-01T03:54:14.653Z,0.00
2018-04-01T03:55:14.744Z,0.00
2018-04-01T03:56:14.832Z,0.00
2018-04-01T03:57:14.929Z,0.00
2018-04-01T03:58:15.018Z,0.00
2018-04-01T03:59:15.108Z,0.00
2018-04-01T04:00:15.201Z,0.00
2018-04-01T04:01:15.290Z,0.00
2018-04-01T04:02:15.381Z,0.00
2018-04-01T04:03:15.471Z,0.00
2018-04-01T04:04:15.559Z,0.00
2018-04-01T04:05:15.666Z,0.00
2018-04-01T04:06:15.742Z,0.00
2018-04-01T04:07:15.832Z,0.00
2018-04-01T04:08:15.922Z,0.00
2018-04-01T04:09:16.011Z,0.00
2018-04-01T04:10:16.100Z,0.00
2018-04-01T04:11:16.195Z,0.00
2018-04-01T04:12:16.285Z,0.00
2018-04-01T04:13:16.377Z,0.00
2018-04-01T04:14:16.465Z,0.00
2018-04-01T04:15:16.563Z,0.00
2018-04-01T04:16:16.655Z,0.00
2018-04-01T04:17:16.750Z,0.00
2018-04-01T04:18:16.836Z,0.00
2018-04-01T04:19:16.925Z,0.00
2018-04-01T04:20:17.013Z,0.00
2018-04-01T04:21:17.110Z,0.00
2018-04-01T04:22:17.196Z,0.00
2018-04-01T04:23:17.287Z,0.00
2018-04-01T04:24:17.376Z,0.00
2018-04-01T04:25:17.483Z,0.00
2018-04-01T04:26:17.560Z,0.00
2018-04-01T04:27:17.651Z,0.00
2018-04-01T04:28:17.741Z,0.00
2018-04-01T04:29:17.822Z,0.00
2018-04-01T04:30:17.929Z,0.00
2018-04-01T04:31:18.027Z,0.00
2018-04-01T04:32:18.120Z,0.00
2018-04-01T04:33:18.207Z,0.00
2018-04-01T04:34:18.302Z,0.00
2018-04-01T04:35:18.388Z,0.00
2018-04-01T04:36:18.477Z,0.00
2018-04-01T04:37:18.571Z,0.00
2018-04-01T04:38:18.661Z,0.00
2018-04-01T04:39:18.749Z,0.00
2018-04-01T04:40:18.842Z,0.00
2018-04-01T04:41:18.933Z,0.00
2018-04-01T04:42:19.019Z,0.00
2018-04-01T04:43:19.110Z,0.00
2018-04-01T04:44:19.205Z,0.00
2018-04-01T04:45:19.296Z,0.00
2018-04-01T04:46:19.377Z,0.00
2018-04-01T04:47:19.466Z,0.00
2018-04-01T04:48:19.561Z,0.00
2018-04-01T04:49:19.653Z,0.00
2018-04-01T04:50:19.743Z,0.00
2018-04-01T04:51:19.834Z,0.00
2018-04-01T04:52:19.926Z,0.00
2018-04-01T04:53:20.018Z,0.00
2018-04-01T04:54:20.117Z,0.00
2018-04-01T04:55:20.208Z,0.00
2018-04-01T04:56:20.296Z,0.00
2018-04-01T04:57:20.388Z,0.00
2018-04-01T04:58:20.478Z,0.00
2018-04-01T04:59:20.567Z,0.00
2018-04-01T05:00:20.660Z,0.00
2018-04-01T05:01:20.745Z,0.00
2018-04-01T05:02:20.842Z,0.00
2018-04-01T05:03:20.929Z,0.00
2018-04-01T05:04:21.011Z,0.00
2018-04-01T05:05:21.100Z,0.00
2018-04-01T05:06:21.199Z,0.00
2018-04-01T05:07:21.272Z,0.00
2018-04-01T05:08:21.377Z,0.00
2018-04-01T05:09:21.456Z,0.00
2018-04-01T05:10:21.549Z,0.00
2018-04-01T05:11:21.640Z,0.00
2018-04-01T05:12:21.731Z,0.00
2018-04-01T05:13:21.846Z,0.00
2018-04-01T05:14:21.936Z,0.00
2018-04-01T05:15:22.032Z,0.00
2018-04-01T05:16:22.117Z,0.00
2018-04-01T05:17:22.213Z,0.00
2018-04-01T05:18:22.302Z,0.00
2018-04-01T05:19:22.393Z,0.00
2018-04-01T05:20:22.481Z,0.00
2018-04-01T05:21:22.572Z,0.00
2018-04-01T05:22:22.662Z,0.00
2018-04-01T05:23:22.751Z,0.00
2018-04-01T05:24:22.841Z,0.00
2018-04-01T05:25:22.932Z,5.63
2018-04-01T05:26:23.024Z,5.63
2018-04-01T05:27:23.125Z,5.63
2018-04-01T05:28:23.206Z,5.63
2018-04-01T05:29:23.299Z,5.63
2018-04-01T05:30:23.387Z,5.63
2018-04-01T05:31:23.485Z,5.63
2018-04-01T05:32:23.574Z,5.63
2018-04-01T05:33:23.668Z,5.63
2018-04-01T05:34:23.755Z,5.63
2018-04-01T05:35:23.842Z,5.63
2018-04-01T05:36:23.935Z,5.63
2018-04-01T05:37:24.026Z,5.63
2018-04-01T05:38:24.120Z,5.63
2018-04-01T05:39:24.204Z,5.63
2018-04-01T05:40:24.292Z,5.63
2018-04-01T05:41:24.385Z,11.25
2018-04-01T05:42:24.474Z,11.25
2018-04-01T05:43:24.565Z,11.25
2018-04-01T05:44:24.661Z,11.25
2018-04-01T05:45:24.751Z,11.25
2018-04-01T05:46:24.839Z,11.25
2018-04-01T05:47:24.930Z,16.88
2018-04-01T05:48:25.021Z,16.88
2018-04-01T05:49:25.110Z,22.50
2018-04-01T05:50:25.213Z,22.50
2018-04-01T05:51:25.299Z,28.13
2018-04-01T05:52:25.387Z,28.13
2018-04-01T05:53:25.476Z,28.13
2018-04-01T05:54:25.601Z,33.75
2018-04-01T05:55:25.659Z,33.75
2018-04-01T05:56:25.748Z,33.75
2018-04-01T05:57:25.846Z,33.75
2018-04-01T05:58:25.933Z,28.13
2018-04-01T05:59:26.027Z,22.50
2018-04-01T06:00:26.121Z,22.50
2018-04-01T06:01:26.209Z,28.13
2018-04-01T06:02:26.301Z,28.13
2018-04-01T06:03:26.392Z,28.13
2018-04-01T06:04:26.487Z,28.13
2018-04-01T06:05:26.578Z,28.13
2018-04-01T06:06:26.670Z,28.13
2018-04-01T06:07:26.759Z,28.13
2018-04-01T06:08:26.851Z,28.13
2018-04-01T06:09:26.943Z,28.13
2018-04-01T06:10:27.034Z,33.75
2018-04-01T06:11:27.124Z,33.75
2018-04-01T06:12:27.221Z,33.75
2018-04-01T06:13:27.308Z,33.75
2018-04-01T06:14:27.401Z,33.75
2018-04-01T06:15:27.491Z,33.75
2018-04-01T06:16:27.583Z,33.75
2018-04-01T06:17:27.668Z,33.75
2018-04-01T06:18:27.761Z,39.38
2018-04-01T06:19:27.853Z,39.38
2018-04-01T06:20:27.944Z,39.38
2018-04-01T06:21:28.036Z,39.38
2018-04-01T06:22:28.132Z,45.00
2018-04-01T06:23:28.240Z,45.00
2018-04-01T06:24:28.332Z,45.00
2018-04-01T06:25:28.424Z,50.63
2018-04-01T06:26:28.519Z,50.63
2018-04-01T06:27:28.607Z,50.63
2018-04-01T06:28:28.698Z,50.63
2018-04-01T06:29:28.788Z,50.63
2018-04-01T06:30:28.875Z,50.63
2018-04-01T06:31:28.966Z,50.63
2018-04-01T06:32:29.060Z,56.25
2018-04-01T06:33:29.148Z,56.25
2018-04-01T06:34:29.239Z,61.88
2018-04-01T06:35:29.336Z,61.88
2018-04-01T06:36:29.425Z,61.88
2018-04-01T06:37:29.519Z,67.50
2018-04-01T06:38:29.610Z,67.50
2018-04-01T06:39:29.701Z,73.13
2018-04-01T06:40:29.794Z,78.75
2018-04-01T06:41:29.887Z,84.38
2018-04-01T06:42:29.978Z,84.38
2018-04-01T06:43:30.070Z,90.00
2018-04-01T06:44:30.158Z,90.00
2018-04-01T06:45:30.319Z,90.00
2018-04-01T06:46:30.344Z,95.63
2018-04-01T06:47:30.435Z,95.63
2018-04-01T06:48:30.527Z,95.63
2018-04-01T06:49:30.607Z,95.63
2018-04-01T06:50:30.694Z,101.25
2018-04-01T06:51:30.786Z,101.25
2018-04-01T06:52:30.877Z,106.88
2018-04-01T06:53:30.970Z,106.88
2018-04-01T06:54:31.063Z,112.50
2018-04-01T06:55:31.152Z,118.13
2018-04-01T06:56:31.240Z,118.13
2018-04-01T06:57:31.337Z,123.75
2018-04-01T06:58:31.454Z,123.75
2018-04-01T06:59:31.547Z,123.75
2018-04-01T07:00:31.640Z,123.75
2018-04-01T07:01:31.734Z,135.00
2018-04-01T07:02:31.836Z,129.38
2018-04-01T07:03:31.907Z,129.38
2018-04-01T07:04:32.001Z,135.00
2018-04-01T07:05:32.093Z,135.00
2018-04-01T07:06:32.183Z,140.63
2018-04-01T07:07:32.276Z,140.63
2018-04-01T07:08:32.367Z,146.25
2018-04-01T07:09:32.457Z,146.25
2018-04-01T07:10:32.549Z,146.25
2018-04-01T07:11:32.647Z,146.25
2018-04-01T07:12:32.736Z,146.25
2018-04-01T07:13:32.828Z,140.63
2018-04-01T07:14:32.918Z,140.63
2018-04-01T07:15:33.013Z,135.00
2018-04-01T07:16:33.107Z,135.00
2018-04-01T07:17:33.222Z,135.00
2018-04-01T07:18:33.294Z,135.00
2018-04-01T07:19:33.384Z,140.63
2018-04-01T07:20:33.474Z,146.25
2018-04-01T07:21:33.554Z,157.50
2018-04-01T07:22:33.656Z,168.75
2018-04-01T07:23:33.746Z,185.63
2018-04-01T07:24:33.858Z,191.25
2018-04-01T07:25:33.931Z,202.50
2018-04-01T07:26:34.024Z,213.75
2018-04-01T07:27:34.125Z,225.00
2018-04-01T07:28:34.217Z,241.88
2018-04-01T07:29:34.305Z,253.13
2018-04-01T07:30:34.402Z,270.00
2018-04-01T07:31:34.492Z,281.25
2018-04-01T07:32:34.585Z,292.50
2018-04-01T07:33:34.676Z,298.13
2018-04-01T07:34:34.761Z,303.75
2018-04-01T07:35:34.856Z,303.75
2018-04-01T07:36:34.943Z,303.75
2018-04-01T07:37:35.035Z,326.25
2018-04-01T07:38:35.125Z,309.38
2018-04-01T07:39:35.219Z,309.38
2018-04-01T07:40:35.316Z,309.38
2018-04-01T07:41:35.406Z,315.00
2018-04-01T07:42:35.496Z,337.50
2018-04-01T07:43:35.591Z,343.13
2018-04-01T07:44:35.684Z,331.88
2018-04-01T07:45:35.777Z,331.88
2018-04-01T07:46:35.871Z,315.00
2018-04-01T07:47:35.954Z,298.13
2018-04-01T07:48:36.059Z,292.50
2018-04-01T07:49:36.152Z,292.50
2018-04-01T07:50:36.245Z,303.75
2018-04-01T07:51:36.342Z,309.38
2018-04-01T07:52:36.438Z,315.00
2018-04-01T07:53:36.531Z,303.75
2018-04-01T07:54:36.625Z,281.25
2018-04-01T07:55:36.720Z,275.63
2018-04-01T07:56:36.816Z,281.25
2018-04-01T07:57:36.909Z,298.13
2018-04-01T07:58:37.003Z,309.38
2018-04-01T07:59:37.102Z,331.88
2018-04-01T08:00:37.199Z,343.13
2018-04-01T08:01:37.292Z,337.50
2018-04-01T08:02:37.386Z,326.25
2018-04-01T08:03:37.481Z,320.63
2018-04-01T08:04:37.574Z,326.25
2018-04-01T08:05:37.665Z,354.38
2018-04-01T08:06:37.782Z,393.75
2018-04-01T08:07:37.877Z,410.63
2018-04-01T08:08:37.973Z,399.38
2018-04-01T08:09:38.066Z,399.38
2018-04-01T08:10:38.161Z,410.63
2018-04-01T08:11:38.256Z,393.75
2018-04-01T08:12:38.348Z,365.63
2018-04-01T08:13:38.448Z,360.00
2018-04-01T08:14:38.541Z,365.63
2018-04-01T08:15:38.634Z,376.88
2018-04-01T08:16:38.728Z,388.13
2018-04-01T08:17:38.822Z,382.50
2018-04-01T08:18:38.917Z,376.88
2018-04-01T08:19:39.007Z,371.25
2018-04-01T08:20:39.104Z,365.63
2018-04-01T08:21:39.195Z,348.75
2018-04-01T08:22:39.288Z,331.88
2018-04-01T08:23:39.385Z,309.38
2018-04-01T08:24:39.480Z,286.88
2018-04-01T08:25:39.575Z,275.63
2018-04-01T08:26:39.669Z,258.75
2018-04-01T08:27:39.770Z,241.88
2018-04-01T08:28:39.860Z,208.13
2018-04-01T08:29:39.952Z,196.88
2018-04-01T08:30:40.050Z,191.25
2018-04-01T08:31:40.142Z,180.00
2018-04-01T08:32:40.237Z,174.38
2018-04-01T08:33:40.330Z,180.00
2018-04-01T08:34:40.425Z,174.38
2018-04-01T08:35:40.514Z,163.13
2018-04-01T08:36:40.612Z,151.88
2018-04-01T08:37:40.707Z,140.63
2018-04-01T08:38:40.800Z,135.00
2018-04-01T08:39:40.892Z,140.63
2018-04-01T08:40:40.987Z,135.00
2018-04-01T08:41:41.080Z,129.38
2018-04-01T08:42:41.174Z,135.00
2018-04-01T08:43:41.268Z,135.00
2018-04-01T08:44:41.360Z,146.25
2018-04-01T08:45:41.457Z,151.88
2018-04-01T08:46:41.557Z,146.25
2018-04-01T08:47:41.675Z,123.75
2018-04-01T08:48:41.746Z,129.38
2018-04-01T08:49:41.837Z,140.63
2018-04-01T08:50:41.930Z,146.25
2018-04-01T08:51:42.027Z,151.88
2018-04-01T08:52:42.119Z,157.50
2018-04-01T08:53:42.209Z,163.13
2018-04-01T08:54:42.310Z,174.38
2018-04-01T08:55:42.402Z,180.00
2018-04-01T08:56:42.496Z,196.88
2018-04-01T08:57:42.590Z,213.75
2018-04-01T08:58:42.685Z,236.25
2018-04-01T08:59:42.780Z,270.00
2018-04-01T09:00:42.871Z,286.88
2018-04-01T09:01:42.965Z,292.50
2018-04-01T09:02:43.057Z,292.50
2018-04-01T09:03:43.153Z,286.88
2018-04-01T09:04:43.247Z,281.25
2018-04-01T09:05:43.340Z,281.25
2018-04-01T09:06:43.432Z,286.88
2018-04-01T09:07:43.529Z,286.88
2018-04-01T09:08:43.623Z,264.38
2018-04-01T09:09:43.716Z,253.13
2018-04-01T09:10:43.810Z,247.50
2018-04-01T09:11:43.904Z,241.88
2018-04-01T09:12:43.997Z,230.63
2018-04-01T09:13:44.093Z,230.63
2018-04-01T09:14:44.186Z,208.13
2018-04-01T09:15:44.283Z,191.25
2018-04-01T09:16:44.376Z,174.38
2018-04-01T09:17:44.470Z,174.38
2018-04-01T09:18:44.568Z,191.25
2018-04-01T09:19:44.666Z,241.88
2018-04-01T09:20:44.756Z,292.50
2018-04-01T09:21:44.848Z,331.88
2018-04-01T09:22:44.958Z,337.50
2018-04-01T09:23:45.050Z,371.25
2018-04-01T09:24:45.148Z,371.25
2018-04-01T09:25:45.235Z,354.38
2018-04-01T09:26:45.326Z,326.25
2018-04-01T09:27:45.423Z,281.25
2018-04-01T09:28:45.519Z,230.63
2018-04-01T09:29:45.612Z,208.13
2018-04-01T09:30:45.707Z,202.50
2018-04-01T09:31:45.810Z,202.50
2018-04-01T09:32:45.906Z,191.25
2018-04-01T09:33:46.002Z,168.75
2018-04-01T09:34:46.096Z,146.25
2018-04-01T09:35:46.190Z,146.25
2018-04-01T09:36:46.308Z,157.50
2018-04-01T09:37:46.380Z,180.00
2018-04-01T09:38:46.474Z,236.25
2018-04-01T09:39:46.582Z,298.13
2018-04-01T09:40:46.666Z,365.63
2018-04-01T09:41:46.762Z,416.25
2018-04-01T09:42:46.858Z,455.63
2018-04-01T09:43:46.949Z,483.75
2018-04-01T09:44:47.047Z,506.25
2018-04-01T09:45:47.141Z,517.50
2018-04-01T09:46:47.248Z,523.13
2018-04-01T09:47:47.335Z,540.00
2018-04-01T09:48:47.435Z,528.75
2018-04-01T09:49:47.530Z,506.25
2018-04-01T09:50:47.627Z,489.38
2018-04-01T09:51:47.751Z,472.50
2018-04-01T09:52:47.845Z,450.00
2018-04-01T09:53:47.942Z,500.63
2018-04-01T09:54:48.039Z,455.63
2018-04-01T09:55:48.131Z,393.75
2018-04-01T09:56:48.229Z,371.25
2018-04-01T09:57:48.325Z,354.38
2018-04-01T09:58:48.421Z,343.13
2018-04-01T09:59:48.513Z,337.50
2018-04-01T10:00:48.609Z,326.25
2018-04-01T10:01:48.706Z,320.63
2018-04-01T10:02:48.805Z,309.38
2018-04-01T10:03:48.897Z,270.00
2018-04-01T10:04:48.994Z,241.88
2018-04-01T10:05:49.084Z,230.63
2018-04-01T10:06:49.186Z,208.13
2018-04-01T10:07:49.282Z,180.00
2018-04-01T10:08:49.427Z,140.63
2018-04-01T10:09:49.474Z,118.13
2018-04-01T10:10:49.569Z,106.88
2018-04-01T10:11:49.668Z,112.50
2018-04-01T10:12:49.767Z,118.13
2018-04-01T10:13:49.865Z,118.13
2018-04-01T10:14:49.959Z,123.75
2018-04-01T10:15:50.064Z,129.38
2018-04-01T10:16:50.157Z,135.00
2018-04-01T10:17:50.249Z,129.38
2018-04-01T10:18:50.339Z,123.75
2018-04-01T10:19:50.436Z,123.75
2018-04-01T10:20:50.538Z,112.50
2018-04-01T10:21:50.632Z,118.13
2018-04-01T10:22:50.723Z,123.75
2018-04-01T10:23:50.822Z,123.75
2018-04-01T10:24:50.912Z,129.38
2018-04-01T10:25:51.008Z,135.00
2018-04-01T10:26:51.107Z,146.25
2018-04-01T10:27:51.194Z,157.50
2018-04-01T10:28:51.288Z,163.13
2018-04-01T10:29:51.379Z,163.13
2018-04-01T10:30:51.478Z,163.13
2018-04-01T10:31:51.569Z,157.50
2018-04-01T10:32:51.664Z,146.25
2018-04-01T10:33:51.757Z,140.63
2018-04-01T10:34:51.848Z,146.25
2018-04-01T10:35:51.940Z,157.50
2018-04-01T10:36:52.033Z,168.75
2018-04-01T10:37:52.129Z,185.63
2018-04-01T10:38:52.223Z,180.00
2018-04-01T10:39:52.318Z,180.00
2018-04-01T10:40:52.410Z,168.75
2018-04-01T10:41:52.505Z,191.25
2018-04-01T10:42:52.600Z,247.50
2018-04-01T10:43:52.696Z,292.50
2018-04-01T10:44:52.793Z,326.25
2018-04-01T10:45:52.891Z,354.38
2018-04-01T10:46:52.982Z,315.00
2018-04-01T10:47:53.078Z,303.75
2018-04-01T10:48:53.171Z,303.75
2018-04-01T10:49:53.269Z,303.75
2018-04-01T10:50:53.364Z,281.25
2018-04-01T10:51:53.453Z,253.13
2018-04-01T10:52:53.544Z,236.25
2018-04-01T10:53:53.641Z,230.63
2018-04-01T10:54:53.736Z,236.25
2018-04-01T10:55:53.830Z,241.88
2018-04-01T10:56:53.923Z,236.25
2018-04-01T10:57:54.011Z,241.88
2018-04-01T10:58:54.118Z,236.25
2018-04-01T10:59:54.206Z,247.50
2018-04-01T11:00:54.298Z,258.75
2018-04-01T11:01:54.392Z,264.38
2018-04-01T11:02:54.486Z,258.75
2018-04-01T11:03:54.579Z,270.00
2018-04-01T11:04:54.677Z,286.88
2018-04-01T11:05:54.765Z,286.88
2018-04-01T11:06:54.858Z,275.63
2018-04-01T11:07:54.964Z,264.38
2018-04-01T11:08:55.034Z,258.75
2018-04-01T11:09:55.129Z,258.75
2018-04-01T11:10:55.221Z,247.50
2018-04-01T11:11:55.317Z,247.50
2018-04-01T11:12:55.413Z,253.13
2018-04-01T11:13:55.506Z,253.13
2018-04-01T11:14:55.610Z,253.13
2018-04-01T11:15:55.694Z,247.50
2018-04-01T11:16:55.808Z,247.50
2018-04-01T11:17:55.895Z,236.25
2018-04-01T11:18:55.989Z,219.38
2018-04-01T11:19:56.081Z,208.13
2018-04-01T11:20:56.178Z,196.88
2018-04-01T11:21:56.270Z,185.63
2018-04-01T11:22:56.362Z,196.88
2018-04-01T11:23:56.478Z,236.25
2018-04-01T11:24:56.573Z,247.50
2018-04-01T11:25:56.665Z,230.63
2018-04-01T11:26:56.757Z,230.63
2018-04-01T11:27:56.854Z,247.50
2018-04-01T11:28:56.950Z,270.00
2018-04-01T11:29:57.041Z,298.13
2018-04-01T11:30:57.125Z,337.50
2018-04-01T11:31:57.233Z,382.50
2018-04-01T11:32:57.328Z,410.63
2018-04-01T11:33:57.420Z,416.25
2018-04-01T11:34:57.530Z,433.13
2018-04-01T11:35:57.604Z,450.00
2018-04-01T11:36:57.700Z,472.50
2018-04-01T11:37:57.794Z,466.88
2018-04-01T11:38:57.890Z,455.63
2018-04-01T11:39:57.982Z,450.00
2018-04-01T11:40:58.080Z,427.50
2018-04-01T11:41:58.176Z,421.88
2018-04-01T11:42:58.272Z,421.88
2018-04-01T11:43:58.369Z,410.63
2018-04-01T11:44:58.520Z,410.63
2018-04-01T11:45:58.612Z,416.25
2018-04-01T11:46:58.709Z,416.25
2018-04-01T11:47:58.802Z,410.63
2018-04-01T11:48:58.901Z,399.38
2018-04-01T11:49:58.994Z,399.38
2018-04-01T11:50:59.143Z,376.88
2018-04-01T11:51:59.183Z,337.50
2018-04-01T11:52:59.280Z,298.13
2018-04-01T11:53:59.370Z,286.88
2018-04-01T11:54:59.458Z,303.75
2018-04-01T11:55:59.550Z,326.25
2018-04-01T11:56:59.647Z,320.63
2018-04-01T11:57:59.744Z,320.63
2018-04-01T11:58:59.838Z,343.13
2018-04-01T11:59:59.926Z,371.25
2018-04-01T12:01:00.021Z,405.00
2018-04-01T12:02:00.116Z,393.75
2018-04-01T12:03:00.247Z,388.13
2018-04-01T12:04:00.306Z,365.63
2018-04-01T12:05:00.393Z,393.75
2018-04-01T12:06:00.490Z,399.38
2018-04-01T12:07:00.587Z,393.75
2018-04-01T12:08:00.677Z,388.13
2018-04-01T12:09:00.779Z,371.25
2018-04-01T12:10:00.871Z,354.38
2018-04-01T12:11:00.962Z,337.50
2018-04-01T12:12:01.056Z,331.88
2018-04-01T12:13:01.152Z,337.50
2018-04-01T12:14:01.248Z,382.50
2018-04-01T12:15:01.339Z,405.00
2018-04-01T12:16:01.434Z,421.88
2018-04-01T12:17:01.530Z,421.88
2018-04-01T12:18:01.625Z,388.13
2018-04-01T12:19:01.721Z,365.63
2018-04-01T12:20:01.816Z,360.00
2018-04-01T12:21:01.912Z,388.13
2018-04-01T12:22:02.008Z,416.25
2018-04-01T12:23:02.103Z,472.50
2018-04-01T12:24:02.212Z,483.75
2018-04-01T12:25:02.291Z,483.75
2018-04-01T12:26:02.385Z,433.13
2018-04-01T12:27:02.483Z,433.13
2018-04-01T12:28:02.582Z,472.50
2018-04-01T12:29:02.668Z,489.38
2018-04-01T12:30:02.766Z,450.00
2018-04-01T12:31:02.862Z,405.00
2018-04-01T12:32:02.960Z,365.63
2018-04-01T12:33:03.049Z,331.88
2018-04-01T12:34:03.135Z,309.38
2018-04-01T12:35:03.235Z,309.38
2018-04-01T12:36:03.326Z,292.50
2018-04-01T12:37:03.420Z,286.88
2018-04-01T12:38:03.513Z,253.13
2018-04-01T12:39:03.614Z,230.63
2018-04-01T12:40:03.711Z,219.38
2018-04-01T12:41:03.807Z,241.88
2018-04-01T12:42:03.902Z,253.13
2018-04-01T12:43:03.998Z,303.75
2018-04-01T12:44:04.091Z,337.50
2018-04-01T12:45:04.189Z,331.88
2018-04-01T12:46:04.274Z,303.75
2018-04-01T12:47:04.371Z,286.88
2018-04-01T12:48:04.463Z,270.00
2018-04-01T12:49:04.561Z,253.13
2018-04-01T12:50:04.654Z,241.88
2018-04-01T12:51:04.747Z,264.38
2018-04-01T12:52:04.862Z,292.50
2018-04-01T12:53:04.944Z,326.25